sensor_id;sensor_type;location;lat;lon;timestamp;pressure;altitude;pressure_sealevel;temperature;humidity
24390;BME280;12510;56.468;-3.004;2023-07-29T00:00:04;99012.44;;;18.59;100.00
24390;BME280;12510;56.468;-3.004;2023-07-29T00:02:38;99004.53;;;18.52;100.00
24390;BME280;12510;56.468;-3.004;2023-07-29T00:05:05;99012.34;;;18.66;100.00
24390;BME280;12510;56.468;-3.004;2023-07-29T00:07:32;99003.16;;;18.62;100.00
24390;BME280;12510;56.468;-3.004;2023-07-29T00:09:58;99010.94;;;18.51;100.00
24390;BME280;12510;56.468;-3.004;2023-07-29T00:12:24;99000.19;;;18.58;100.00
24390;BME280;12510;56.468;-3.004;2023-07-29T00:14:51;99003.28;;;18.55;100.00
24390;BME280;12510;56.468;-3.004;2023-07-29T00:17:17;98994.72;;;18.53;100.00
24390;BME280;12510;56.468;-3.004;2023-07-29T00:19:46;98990.03;;;18.48;100.00
24390;BME280;12510;56.468;-3.004;2023-07-29T00:22:13;98997.72;;;18.45;100.00
24390;BME280;12510;56.468;-3.004;2023-07-29T00:24:39;98999.78;;;18.42;100.00
24390;BME280;12510;56.468;-3.004;2023-07-29T00:27:06;99005.72;;;18.45;100.00
24390;BME280;12510;56.468;-3.004;2023-07-29T00:29:33;98993.78;;;18.47;100.00
24390;BME280;12510;56.468;-3.004;2023-07-29T00:31:59;98993.28;;;18.38;100.00
24390;BME280;12510;56.468;-3.004;2023-07-29T00:34:26;98981.34;;;18.41;100.00
24390;BME280;12510;56.468;-3.004;2023-07-29T00:36:52;98979.06;;;18.45;100.00
24390;BME280;12510;56.468;-3.004;2023-07-29T00:39:19;98990.28;;;18.47;100.00
24390;BME280;12510;56.468;-3.004;2023-07-29T00:41:46;98989.13;;;18.42;100.00
24390;BME280;12510;56.468;-3.004;2023-07-29T00:44:12;98985.84;;;18.40;100.00
24390;BME280;12510;56.468;-3.004;2023-07-29T00:46:40;98980.28;;;18.30;100.00
24390;BME280;12510;56.468;-3.004;2023-07-29T00:49:08;98982.47;;;18.33;100.00
24390;BME280;12510;56.468;-3.004;2023-07-29T00:51:34;98979.00;;;18.33;100.00
24390;BME280;12510;56.468;-3.004;2023-07-29T00:54:02;98972.44;;;18.35;100.00
24390;BME280;12510;56.468;-3.004;2023-07-29T00:56:28;98976.69;;;18.36;100.00
24390;BME280;12510;56.468;-3.004;2023-07-29T00:58:55;98969.44;;;18.43;100.00
24390;BME280;12510;56.468;-3.004;2023-07-29T01:01:25;98965.81;;;18.50;100.00
24390;BME280;12510;56.468;-3.004;2023-07-29T01:03:52;98957.13;;;18.42;100.00
24390;BME280;12510;56.468;-3.004;2023-07-29T01:06:38;98957.59;;;18.39;100.00
24390;BME280;12510;56.468;-3.004;2023-07-29T01:09:21;98955.63;;;18.47;100.00
24390;BME280;12510;56.468;-3.004;2023-07-29T01:12:11;98960.72;;;18.48;100.00
24390;BME280;12510;56.468;-3.004;2023-07-29T01:14:43;98954.44;;;18.31;100.00
24390;BME280;12510;56.468;-3.004;2023-07-29T01:17:22;98957.22;;;18.36;100.00
24390;BME280;12510;56.468;-3.004;2023-07-29T01:20:09;98949.00;;;18.37;100.00
24390;BME280;12510;56.468;-3.004;2023-07-29T01:22:39;98950.78;;;18.43;100.00
24390;BME280;12510;56.468;-3.004;2023-07-29T01:25:06;98943.44;;;18.39;100.00
24390;BME280;12510;56.468;-3.004;2023-07-29T01:27:33;98952.97;;;18.47;100.00
24390;BME280;12510;56.468;-3.004;2023-07-29T01:30:00;98952.50;;;18.50;100.00
24390;BME280;12510;56.468;-3.004;2023-07-29T01:33:04;98942.66;;;18.50;100.00
24390;BME280;12510;56.468;-3.004;2023-07-29T01:35:31;98939.31;;;18.55;100.00
24390;BME280;12510;56.468;-3.004;2023-07-29T01:38:05;98939.53;;;18.53;100.00
24390;BME280;12510;56.468;-3.004;2023-07-29T01:40:32;98938.72;;;18.53;100.00
24390;BME280;12510;56.468;-3.004;2023-07-29T01:43:00;98925.41;;;18.53;100.00
24390;BME280;12510;56.468;-3.004;2023-07-29T01:45:26;98931.19;;;18.50;100.00
24390;BME280;12510;56.468;-3.004;2023-07-29T01:47:53;98930.00;;;18.46;100.00
24390;BME280;12510;56.468;-3.004;2023-07-29T01:50:21;98928.41;;;18.45;100.00
24390;BME280;12510;56.468;-3.004;2023-07-29T01:52:47;98931.28;;;18.43;100.00
24390;BME280;12510;56.468;-3.004;2023-07-29T01:55:14;98924.78;;;18.39;100.00
24390;BME280;12510;56.468;-3.004;2023-07-29T01:57:41;98926.06;;;18.36;100.00
24390;BME280;12510;56.468;-3.004;2023-07-29T02:00:07;98920.94;;;18.23;100.00
24390;BME280;12510;56.468;-3.004;2023-07-29T02:02:41;98922.22;;;18.32;100.00
24390;BME280;12510;56.468;-3.004;2023-07-29T02:05:08;98921.16;;;18.21;100.00
24390;BME280;12510;56.468;-3.004;2023-07-29T02:07:34;98918.28;;;18.23;100.00
24390;BME280;12510;56.468;-3.004;2023-07-29T02:10:01;98913.53;;;18.25;100.00
24390;BME280;12510;56.468;-3.004;2023-07-29T02:12:27;98905.41;;;18.20;100.00
24390;BME280;12510;56.468;-3.004;2023-07-29T02:14:53;98901.94;;;18.19;100.00
24390;BME280;12510;56.468;-3.004;2023-07-29T02:17:20;98909.25;;;18.24;100.00
24390;BME280;12510;56.468;-3.004;2023-07-29T02:19:47;98907.50;;;18.18;100.00
24390;BME280;12510;56.468;-3.004;2023-07-29T02:22:16;98900.31;;;18.18;100.00
24390;BME280;12510;56.468;-3.004;2023-07-29T02:24:43;98909.13;;;18.19;100.00
24390;BME280;12510;56.468;-3.004;2023-07-29T02:27:10;98905.06;;;18.16;100.00
24390;BME280;12510;56.468;-3.004;2023-07-29T02:29:37;98907.50;;;18.18;100.00
24390;BME280;12510;56.468;-3.004;2023-07-29T02:32:03;98895.91;;;18.12;100.00
24390;BME280;12510;56.468;-3.004;2023-07-29T02:34:30;98899.38;;;18.13;100.00
24390;BME280;12510;56.468;-3.004;2023-07-29T02:36:57;98889.75;;;18.12;100.00
24390;BME280;12510;56.468;-3.004;2023-07-29T02:39:23;98897.28;;;18.15;100.00
24390;BME280;12510;56.468;-3.004;2023-07-29T02:41:50;98889.63;;;18.06;100.00
24390;BME280;12510;56.468;-3.004;2023-07-29T02:44:16;98884.63;;;17.98;100.00
24390;BME280;12510;56.468;-3.004;2023-07-29T02:46:43;98883.97;;;18.15;100.00
24390;BME280;12510;56.468;-3.004;2023-07-29T02:49:09;98882.03;;;18.22;100.00
24390;BME280;12510;56.468;-3.004;2023-07-29T02:51:35;98882.25;;;18.32;100.00
24390;BME280;12510;56.468;-3.004;2023-07-29T02:54:02;98874.25;;;18.20;100.00
24390;BME280;12510;56.468;-3.004;2023-07-29T02:56:29;98875.34;;;18.31;100.00
24390;BME280;12510;56.468;-3.004;2023-07-29T02:58:56;98869.91;;;18.38;100.00
24390;BME280;12510;56.468;-3.004;2023-07-29T03:01:23;98868.59;;;18.40;100.00
24390;BME280;12510;56.468;-3.004;2023-07-29T03:03:51;98871.16;;;18.35;100.00
24390;BME280;12510;56.468;-3.004;2023-07-29T03:06:17;98865.94;;;18.40;100.00
24390;BME280;12510;56.468;-3.004;2023-07-29T03:08:44;98856.66;;;18.19;100.00
24390;BME280;12510;56.468;-3.004;2023-07-29T03:11:13;98863.16;;;18.35;100.00
24390;BME280;12510;56.468;-3.004;2023-07-29T03:13:40;98860.50;;;18.35;100.00
24390;BME280;12510;56.468;-3.004;2023-07-29T03:16:11;98857.34;;;18.26;100.00
24390;BME280;12510;56.468;-3.004;2023-07-29T03:18:40;98856.09;;;18.29;100.00
24390;BME280;12510;56.468;-3.004;2023-07-29T03:21:06;98859.44;;;18.24;100.00
24390;BME280;12510;56.468;-3.004;2023-07-29T03:23:34;98852.72;;;18.22;100.00
24390;BME280;12510;56.468;-3.004;2023-07-29T03:26:02;98845.16;;;18.07;100.00
24390;BME280;12510;56.468;-3.004;2023-07-29T03:28:41;98845.28;;;18.12;100.00
24390;BME280;12510;56.468;-3.004;2023-07-29T03:31:08;98845.75;;;18.09;100.00
24390;BME280;12510;56.468;-3.004;2023-07-29T03:33:35;98846.88;;;18.01;100.00
24390;BME280;12510;56.468;-3.004;2023-07-29T03:36:01;98822.41;;;17.81;100.00
24390;BME280;12510;56.468;-3.004;2023-07-29T03:38:28;98833.00;;;17.99;100.00
24390;BME280;12510;56.468;-3.004;2023-07-29T03:40:54;98833.34;;;18.03;100.00
24390;BME280;12510;56.468;-3.004;2023-07-29T03:43:21;98838.78;;;18.08;100.00
24390;BME280;12510;56.468;-3.004;2023-07-29T03:45:47;98838.78;;;18.08;100.00
24390;BME280;12510;56.468;-3.004;2023-07-29T03:48:14;98836.97;;;18.08;100.00
24390;BME280;12510;56.468;-3.004;2023-07-29T03:50:40;98836.13;;;18.08;100.00
24390;BME280;12510;56.468;-3.004;2023-07-29T03:53:07;98837.06;;;18.14;100.00
24390;BME280;12510;56.468;-3.004;2023-07-29T03:55:33;98840.78;;;18.13;100.00
24390;BME280;12510;56.468;-3.004;2023-07-29T03:58:00;98838.34;;;18.11;100.00
24390;BME280;12510;56.468;-3.004;2023-07-29T04:00:27;98837.06;;;18.14;100.00
24390;BME280;12510;56.468;-3.004;2023-07-29T04:02:54;98841.59;;;18.13;100.00
24390;BME280;12510;56.468;-3.004;2023-07-29T04:05:21;98836.84;;;18.03;100.00
24390;BME280;12510;56.468;-3.004;2023-07-29T04:07:48;98826.75;;;18.05;100.00
24390;BME280;12510;56.468;-3.004;2023-07-29T04:10:14;98827.22;;;18.02;100.00
24390;BME280;12510;56.468;-3.004;2023-07-29T04:12:41;98822.25;;;18.06;100.00
24390;BME280;12510;56.468;-3.004;2023-07-29T04:15:07;98822.22;;;17.94;100.00
24390;BME280;12510;56.468;-3.004;2023-07-29T04:17:34;98827.56;;;17.94;100.00
24390;BME280;12510;56.468;-3.004;2023-07-29T04:20:00;98831.94;;;18.00;100.00
24390;BME280;12510;56.468;-3.004;2023-07-29T04:22:33;98825.00;;;17.99;100.00
24390;BME280;12510;56.468;-3.004;2023-07-29T04:24:59;98828.25;;;18.01;100.00
24390;BME280;12510;56.468;-3.004;2023-07-29T04:27:26;98827.81;;;18.04;100.00
24390;BME280;12510;56.468;-3.004;2023-07-29T04:29:53;98817.69;;;17.95;100.00
24390;BME280;12510;56.468;-3.004;2023-07-29T04:32:19;98816.78;;;18.01;100.00
24390;BME280;12510;56.468;-3.004;2023-07-29T04:34:46;98800.06;;;17.82;100.00
24390;BME280;12510;56.468;-3.004;2023-07-29T04:37:12;98815.69;;;17.90;100.00
24390;BME280;12510;56.468;-3.004;2023-07-29T04:39:39;98802.63;;;17.88;100.00
24390;BME280;12510;56.468;-3.004;2023-07-29T04:42:05;98800.16;;;17.75;100.00
24390;BME280;12510;56.468;-3.004;2023-07-29T04:44:32;98796.34;;;17.71;100.00
24390;BME280;12510;56.468;-3.004;2023-07-29T04:46:58;98796.56;;;17.81;100.00
24390;BME280;12510;56.468;-3.004;2023-07-29T04:49:24;98786.59;;;17.65;100.00
24390;BME280;12510;56.468;-3.004;2023-07-29T04:51:51;98791.44;;;17.68;100.00
24390;BME280;12510;56.468;-3.004;2023-07-29T04:54:17;98782.31;;;17.64;100.00
24390;BME280;12510;56.468;-3.004;2023-07-29T04:56:47;98782.78;;;17.72;100.00
24390;BME280;12510;56.468;-3.004;2023-07-29T04:59:13;98796.94;;;17.85;100.00
24390;BME280;12510;56.468;-3.004;2023-07-29T05:01:40;98798.50;;;17.92;100.00
24390;BME280;12510;56.468;-3.004;2023-07-29T05:04:08;98798.44;;;17.81;100.00
24390;BME280;12510;56.468;-3.004;2023-07-29T05:06:36;98780.84;;;17.80;100.00
24390;BME280;12510;56.468;-3.004;2023-07-29T05:09:13;98789.06;;;17.78;100.00
24390;BME280;12510;56.468;-3.004;2023-07-29T05:11:39;98804.69;;;17.86;100.00
24390;BME280;12510;56.468;-3.004;2023-07-29T05:14:06;98795.00;;;17.92;100.00
24390;BME280;12510;56.468;-3.004;2023-07-29T05:16:32;98785.75;;;17.95;100.00
24390;BME280;12510;56.468;-3.004;2023-07-29T05:18:59;98799.72;;;17.90;100.00
24390;BME280;12510;56.468;-3.004;2023-07-29T05:21:25;98792.66;;;17.84;100.00
24390;BME280;12510;56.468;-3.004;2023-07-29T05:23:52;98785.81;;;17.88;100.00
24390;BME280;12510;56.468;-3.004;2023-07-29T05:26:18;98783.75;;;17.90;100.00
24390;BME280;12510;56.468;-3.004;2023-07-29T05:28:45;98786.06;;;17.86;100.00
24390;BME280;12510;56.468;-3.004;2023-07-29T05:31:11;98784.13;;;17.93;100.00
24390;BME280;12510;56.468;-3.004;2023-07-29T05:33:37;98787.44;;;17.89;100.00
24390;BME280;12510;56.468;-3.004;2023-07-29T05:36:04;98774.94;;;17.89;100.00
24390;BME280;12510;56.468;-3.004;2023-07-29T05:38:31;98771.94;;;17.86;100.00
24390;BME280;12510;56.468;-3.004;2023-07-29T05:40:57;98764.28;;;17.78;100.00
24390;BME280;12510;56.468;-3.004;2023-07-29T05:43:24;98769.16;;;17.81;100.00
24390;BME280;12510;56.468;-3.004;2023-07-29T05:45:50;98763.81;;;17.81;100.00
24390;BME280;12510;56.468;-3.004;2023-07-29T05:48:19;98767.28;;;17.81;100.00
24390;BME280;12510;56.468;-3.004;2023-07-29T05:50:46;98756.97;;;17.73;100.00
24390;BME280;12510;56.468;-3.004;2023-07-29T05:53:12;98760.94;;;17.82;100.00
24390;BME280;12510;56.468;-3.004;2023-07-29T05:55:38;98755.56;;;17.70;100.00
24390;BME280;12510;56.468;-3.004;2023-07-29T05:58:05;98734.22;;;17.47;100.00
24390;BME280;12510;56.468;-3.004;2023-07-29T06:00:32;98737.25;;;17.50;100.00
24390;BME280;12510;56.468;-3.004;2023-07-29T06:03:00;98732.31;;;17.23;100.00
24390;BME280;12510;56.468;-3.004;2023-07-29T06:05:26;98733.19;;;17.48;100.00
24390;BME280;12510;56.468;-3.004;2023-07-29T06:07:52;98720.09;;;17.34;100.00
24390;BME280;12510;56.468;-3.004;2023-07-29T06:10:19;98715.09;;;17.26;100.00
24390;BME280;12510;56.468;-3.004;2023-07-29T06:12:47;98695.97;;;17.05;100.00
24390;BME280;12510;56.468;-3.004;2023-07-29T06:15:14;98691.13;;;17.14;100.00
24390;BME280;12510;56.468;-3.004;2023-07-29T06:17:41;98670.97;;;17.06;100.00
24390;BME280;12510;56.468;-3.004;2023-07-29T06:20:08;98669.50;;;17.11;100.00
24390;BME280;12510;56.468;-3.004;2023-07-29T06:22:34;98662.31;;;16.81;100.00
24390;BME280;12510;56.468;-3.004;2023-07-29T06:25:01;98645.44;;;16.75;100.00
24390;BME280;12510;56.468;-3.004;2023-07-29T06:27:27;98640.66;;;16.96;100.00
24390;BME280;12510;56.468;-3.004;2023-07-29T06:29:54;98669.28;;;17.12;100.00
24390;BME280;12510;56.468;-3.004;2023-07-29T06:32:20;98644.44;;;16.88;100.00
24390;BME280;12510;56.468;-3.004;2023-07-29T06:34:47;98635.31;;;16.84;100.00
24390;BME280;12510;56.468;-3.004;2023-07-29T06:37:13;98631.09;;;16.95;100.00
24390;BME280;12510;56.468;-3.004;2023-07-29T06:39:39;98628.19;;;16.96;100.00
24390;BME280;12510;56.468;-3.004;2023-07-29T06:42:06;98616.78;;;16.77;100.00
24390;BME280;12510;56.468;-3.004;2023-07-29T06:44:33;98611.28;;;16.60;100.00
24390;BME280;12510;56.468;-3.004;2023-07-29T06:46:59;98609.09;;;16.69;100.00
24390;BME280;12510;56.468;-3.004;2023-07-29T06:49:25;98598.59;;;16.92;100.00
24390;BME280;12510;56.468;-3.004;2023-07-29T06:51:52;98605.13;;;17.20;100.00
24390;BME280;12510;56.468;-3.004;2023-07-29T06:54:18;98600.25;;;17.05;100.00
24390;BME280;12510;56.468;-3.004;2023-07-29T06:56:45;98607.78;;;17.56;100.00
24390;BME280;12510;56.468;-3.004;2023-07-29T06:59:11;98641.31;;;17.21;100.00
24390;BME280;12510;56.468;-3.004;2023-07-29T07:01:37;98624.31;;;17.11;100.00
24390;BME280;12510;56.468;-3.004;2023-07-29T07:04:04;98629.41;;;17.48;100.00
24390;BME280;12510;56.468;-3.004;2023-07-29T07:06:30;98646.53;;;17.52;100.00
24390;BME280;12510;56.468;-3.004;2023-07-29T07:08:57;98649.19;;;17.28;100.00
24390;BME280;12510;56.468;-3.004;2023-07-29T07:11:23;98661.03;;;17.80;100.00
24390;BME280;12510;56.468;-3.004;2023-07-29T07:13:49;98686.06;;;18.02;100.00
24390;BME280;12510;56.468;-3.004;2023-07-29T07:16:16;98687.56;;;18.10;100.00
24390;BME280;12510;56.468;-3.004;2023-07-29T07:18:43;98706.16;;;17.74;100.00
24390;BME280;12510;56.468;-3.004;2023-07-29T07:21:09;98692.94;;;17.56;100.00
24390;BME280;12510;56.468;-3.004;2023-07-29T07:23:36;98712.56;;;17.97;100.00
24390;BME280;12510;56.468;-3.004;2023-07-29T07:26:02;98716.63;;;18.00;100.00
24390;BME280;12510;56.468;-3.004;2023-07-29T07:28:29;98712.97;;;17.58;100.00
24390;BME280;12510;56.468;-3.004;2023-07-29T07:30:55;98702.66;;;17.50;100.00
24390;BME280;12510;56.468;-3.004;2023-07-29T07:33:22;98699.66;;;17.58;100.00
24390;BME280;12510;56.468;-3.004;2023-07-29T07:35:49;98693.66;;;17.63;100.00
24390;BME280;12510;56.468;-3.004;2023-07-29T07:38:15;98713.59;;;17.72;100.00
24390;BME280;12510;56.468;-3.004;2023-07-29T07:40:52;98689.75;;;17.23;100.00
24390;BME280;12510;56.468;-3.004;2023-07-29T07:43:20;98686.03;;;17.55;100.00
24390;BME280;12510;56.468;-3.004;2023-07-29T07:45:46;98689.13;;;17.64;100.00
24390;BME280;12510;56.468;-3.004;2023-07-29T07:48:13;98726.53;;;18.52;100.00
24390;BME280;12510;56.468;-3.004;2023-07-29T07:50:39;98741.41;;;18.76;100.00
24390;BME280;12510;56.468;-3.004;2023-07-29T07:53:06;98743.47;;;18.34;100.00
24390;BME280;12510;56.468;-3.004;2023-07-29T07:55:32;98759.88;;;19.19;100.00
24390;BME280;12510;56.468;-3.004;2023-07-29T07:57:59;98777.88;;;19.12;100.00
24390;BME280;12510;56.468;-3.004;2023-07-29T08:00:25;98786.31;;;19.20;100.00
24390;BME280;12510;56.468;-3.004;2023-07-29T08:02:51;98771.47;;;18.60;100.00
24390;BME280;12510;56.468;-3.004;2023-07-29T08:05:18;98791.03;;;18.89;100.00
24390;BME280;12510;56.468;-3.004;2023-07-29T08:07:44;98799.69;;;19.08;100.00
24390;BME280;12510;56.468;-3.004;2023-07-29T08:10:11;98815.78;;;19.71;100.00
24390;BME280;12510;56.468;-3.004;2023-07-29T08:12:37;98818.00;;;19.91;100.00
24390;BME280;12510;56.468;-3.004;2023-07-29T08:15:04;98824.59;;;20.96;100.00
24390;BME280;12510;56.468;-3.004;2023-07-29T08:17:31;98841.53;;;19.49;100.00
24390;BME280;12510;56.468;-3.004;2023-07-29T08:19:57;98839.78;;;20.17;100.00
24390;BME280;12510;56.468;-3.004;2023-07-29T08:22:24;98841.28;;;20.64;100.00
24390;BME280;12510;56.468;-3.004;2023-07-29T08:24:50;98844.47;;;20.78;100.00
24390;BME280;12510;56.468;-3.004;2023-07-29T08:27:16;98851.00;;;21.81;100.00
24390;BME280;12510;56.468;-3.004;2023-07-29T08:29:43;98844.75;;;23.36;100.00
24390;BME280;12510;56.468;-3.004;2023-07-29T08:32:09;98841.19;;;22.67;100.00
24390;BME280;12510;56.468;-3.004;2023-07-29T08:34:36;98840.75;;;23.65;100.00
24390;BME280;12510;56.468;-3.004;2023-07-29T08:37:02;98833.00;;;23.84;100.00
24390;BME280;12510;56.468;-3.004;2023-07-29T08:39:29;98841.34;;;24.23;100.00
24390;BME280;12510;56.468;-3.004;2023-07-29T08:42:02;98842.56;;;25.93;100.00
24390;BME280;12510;56.468;-3.004;2023-07-29T08:44:40;98838.06;;;24.52;100.00
24390;BME280;12510;56.468;-3.004;2023-07-29T08:47:07;98841.53;;;24.79;100.00
24390;BME280;12510;56.468;-3.004;2023-07-29T08:49:34;98842.88;;;24.86;100.00
24390;BME280;12510;56.468;-3.004;2023-07-29T08:52:01;98839.69;;;23.60;100.00
24390;BME280;12510;56.468;-3.004;2023-07-29T08:54:28;98852.72;;;23.21;100.00
24390;BME280;12510;56.468;-3.004;2023-07-29T08:56:54;98833.75;;;25.42;100.00
24390;BME280;12510;56.468;-3.004;2023-07-29T08:59:21;98834.31;;;24.69;100.00
24390;BME280;12510;56.468;-3.004;2023-07-29T09:01:49;98835.94;;;24.39;100.00
24390;BME280;12510;56.468;-3.004;2023-07-29T09:04:15;98829.75;;;25.35;100.00
24390;BME280;12510;56.468;-3.004;2023-07-29T09:06:43;98822.84;;;25.08;100.00
24390;BME280;12510;56.468;-3.004;2023-07-29T09:09:10;98796.44;;;26.77;100.00
24390;BME280;12510;56.468;-3.004;2023-07-29T09:11:37;98811.31;;;26.21;100.00
24390;BME280;12510;56.468;-3.004;2023-07-29T09:14:03;98819.75;;;25.30;100.00
24390;BME280;12510;56.468;-3.004;2023-07-29T09:16:30;98822.59;;;24.99;100.00
24390;BME280;12510;56.468;-3.004;2023-07-29T09:19:01;98831.34;;;24.65;100.00
24390;BME280;12510;56.468;-3.004;2023-07-29T09:21:27;98837.47;;;23.32;100.00
24390;BME280;12510;56.468;-3.004;2023-07-29T09:23:55;98822.31;;;25.01;100.00
24390;BME280;12510;56.468;-3.004;2023-07-29T09:26:22;98828.34;;;24.82;100.00
24390;BME280;12510;56.468;-3.004;2023-07-29T09:28:52;98816.53;;;26.66;100.00
24390;BME280;12510;56.468;-3.004;2023-07-29T09:31:21;98822.19;;;25.76;100.00
24390;BME280;12510;56.468;-3.004;2023-07-29T09:33:48;98800.44;;;27.04;100.00
24390;BME280;12510;56.468;-3.004;2023-07-29T09:36:15;98793.13;;;26.32;100.00
24390;BME280;12510;56.468;-3.004;2023-07-29T09:38:42;98802.50;;;25.41;100.00
24390;BME280;12510;56.468;-3.004;2023-07-29T09:41:12;98798.94;;;25.46;100.00
24390;BME280;12510;56.468;-3.004;2023-07-29T09:43:40;98796.50;;;27.35;100.00
24390;BME280;12510;56.468;-3.004;2023-07-29T09:46:06;98800.06;;;26.14;100.00
24390;BME280;12510;56.468;-3.004;2023-07-29T09:48:34;98795.88;;;26.81;100.00
24390;BME280;12510;56.468;-3.004;2023-07-29T09:51:14;98793.94;;;26.33;100.00
24390;BME280;12510;56.468;-3.004;2023-07-29T09:53:44;98792.56;;;27.27;100.00
24390;BME280;12510;56.468;-3.004;2023-07-29T09:56:10;98800.75;;;26.79;100.00
24390;BME280;12510;56.468;-3.004;2023-07-29T09:58:38;98806.69;;;25.08;100.00
24390;BME280;12510;56.468;-3.004;2023-07-29T10:01:08;98813.50;;;26.49;100.00
24390;BME280;12510;56.468;-3.004;2023-07-29T10:03:36;98816.03;;;25.21;100.00
24390;BME280;12510;56.468;-3.004;2023-07-29T10:06:03;98814.22;;;25.06;100.00
24390;BME280;12510;56.468;-3.004;2023-07-29T10:08:30;98813.63;;;24.49;100.00
24390;BME280;12510;56.468;-3.004;2023-07-29T10:11:08;98820.06;;;23.70;100.00
24390;BME280;12510;56.468;-3.004;2023-07-29T10:13:35;98816.88;;;23.84;100.00
24390;BME280;12510;56.468;-3.004;2023-07-29T10:16:03;98824.72;;;22.96;100.00
24390;BME280;12510;56.468;-3.004;2023-07-29T10:18:30;98827.34;;;23.70;100.00
24390;BME280;12510;56.468;-3.004;2023-07-29T10:20:59;98814.16;;;23.68;100.00
24390;BME280;12510;56.468;-3.004;2023-07-29T10:23:27;98804.50;;;23.62;100.00
24390;BME280;12510;56.468;-3.004;2023-07-29T10:26:06;98822.97;;;22.74;100.00
24390;BME280;12510;56.468;-3.004;2023-07-29T10:28:41;98800.34;;;24.78;100.00
24390;BME280;12510;56.468;-3.004;2023-07-29T10:31:12;98811.09;;;25.43;100.00
24390;BME280;12510;56.468;-3.004;2023-07-29T10:33:39;98793.03;;;25.49;100.00
24390;BME280;12510;56.468;-3.004;2023-07-29T10:36:06;98791.34;;;26.22;100.00
24390;BME280;12510;56.468;-3.004;2023-07-29T10:38:33;98802.22;;;26.41;100.00
24390;BME280;12510;56.468;-3.004;2023-07-29T10:40:59;98780.19;;;26.83;100.00
24390;BME280;12510;56.468;-3.004;2023-07-29T10:45:56;98817.63;;;25.27;100.00
24390;BME280;12510;56.468;-3.004;2023-07-29T10:51:24;98808.03;;;26.54;100.00
24390;BME280;12510;56.468;-3.004;2023-07-29T10:54:01;98787.97;;;26.36;98.79
24390;BME280;12510;56.468;-3.004;2023-07-29T10:58:56;98802.75;;;24.85;100.00
24390;BME280;12510;56.468;-3.004;2023-07-29T11:01:28;98808.66;;;24.87;100.00
24390;BME280;12510;56.468;-3.004;2023-07-29T11:04:21;98810.97;;;25.64;100.00
24390;BME280;12510;56.468;-3.004;2023-07-29T11:12:44;98799.09;;;25.20;100.00
24390;BME280;12510;56.468;-3.004;2023-07-29T11:15:27;98787.13;;;24.92;100.00
24390;BME280;12510;56.468;-3.004;2023-07-29T11:18:01;98790.09;;;24.85;100.00
24390;BME280;12510;56.468;-3.004;2023-07-29T11:20:32;98797.03;;;25.52;100.00
24390;BME280;12510;56.468;-3.004;2023-07-29T11:23:01;98791.28;;;25.19;100.00
24390;BME280;12510;56.468;-3.004;2023-07-29T11:25:30;98807.00;;;23.10;100.00
24390;BME280;12510;56.468;-3.004;2023-07-29T11:27:59;98793.13;;;24.58;100.00
24390;BME280;12510;56.468;-3.004;2023-07-29T11:30:25;98790.41;;;25.34;100.00
24390;BME280;12510;56.468;-3.004;2023-07-29T11:32:59;98799.16;;;23.98;100.00
24390;BME280;12510;56.468;-3.004;2023-07-29T11:35:26;98788.47;;;24.89;100.00
24390;BME280;12510;56.468;-3.004;2023-07-29T11:37:54;98799.34;;;23.40;100.00
24390;BME280;12510;56.468;-3.004;2023-07-29T11:40:23;98799.06;;;23.41;100.00
24390;BME280;12510;56.468;-3.004;2023-07-29T11:42:51;98800.72;;;23.58;100.00
24390;BME280;12510;56.468;-3.004;2023-07-29T11:45:19;98776.56;;;23.63;100.00
24390;BME280;12510;56.468;-3.004;2023-07-29T11:47:46;98787.53;;;24.39;100.00
24390;BME280;12510;56.468;-3.004;2023-07-29T11:50:14;98796.28;;;24.81;100.00
24390;BME280;12510;56.468;-3.004;2023-07-29T11:52:42;98777.72;;;24.79;100.00
24390;BME280;12510;56.468;-3.004;2023-07-29T11:55:09;98783.19;;;24.58;100.00
24390;BME280;12510;56.468;-3.004;2023-07-29T11:57:37;98775.22;;;23.91;100.00
24390;BME280;12510;56.468;-3.004;2023-07-29T12:00:06;98777.06;;;24.27;100.00
24390;BME280;12510;56.468;-3.004;2023-07-29T12:02:39;98781.09;;;24.30;100.00
24390;BME280;12510;56.468;-3.004;2023-07-29T12:05:06;98767.44;;;24.91;100.00
24390;BME280;12510;56.468;-3.004;2023-07-29T12:07:33;98784.34;;;24.21;100.00
24390;BME280;12510;56.468;-3.004;2023-07-29T12:10:01;98784.84;;;24.39;99.21
24390;BME280;12510;56.468;-3.004;2023-07-29T12:12:29;98801.63;;;24.96;100.00
24390;BME280;12510;56.468;-3.004;2023-07-29T12:14:56;98820.56;;;24.70;100.00
24390;BME280;12510;56.468;-3.004;2023-07-29T12:17:22;98786.75;;;23.87;100.00
24390;BME280;12510;56.468;-3.004;2023-07-29T12:19:49;98775.91;;;24.59;100.00
24390;BME280;12510;56.468;-3.004;2023-07-29T12:22:19;98786.16;;;24.47;100.00
24390;BME280;12510;56.468;-3.004;2023-07-29T12:24:45;98789.41;;;24.38;100.00
24390;BME280;12510;56.468;-3.004;2023-07-29T12:27:13;98786.72;;;24.49;100.00
24390;BME280;12510;56.468;-3.004;2023-07-29T12:29:41;98789.44;;;24.28;100.00
24390;BME280;12510;56.468;-3.004;2023-07-29T12:32:08;98787.22;;;25.26;100.00
24390;BME280;12510;56.468;-3.004;2023-07-29T12:34:36;98781.16;;;25.45;99.82
24390;BME280;12510;56.468;-3.004;2023-07-29T12:37:04;98792.50;;;25.42;100.00
24390;BME280;12510;56.468;-3.004;2023-07-29T12:39:38;98803.53;;;24.96;100.00
24390;BME280;12510;56.468;-3.004;2023-07-29T12:42:06;98806.47;;;24.99;100.00
24390;BME280;12510;56.468;-3.004;2023-07-29T12:44:34;98816.88;;;24.35;100.00
24390;BME280;12510;56.468;-3.004;2023-07-29T12:47:05;98809.34;;;23.86;100.00
24390;BME280;12510;56.468;-3.004;2023-07-29T12:49:32;98805.59;;;24.13;100.00
24390;BME280;12510;56.468;-3.004;2023-07-29T12:51:59;98800.19;;;25.14;100.00
24390;BME280;12510;56.468;-3.004;2023-07-29T12:54:26;98792.81;;;25.30;100.00
24390;BME280;12510;56.468;-3.004;2023-07-29T12:56:53;98811.19;;;24.63;100.00